PILOTS ONLINE: 366    ATC ONLINE: 56

KNSE

Whiting Field Naval Air Station North Airport

Location

City Milton
Country  United States
Latitude 30° 43' 27" N
Longitude 87° 1' 18" W
Elevation 199 ft
Type Medium Airport

Map

Weather

METAR
2014/08/30 09:56
KNSE 300956Z AUTO 00000KT 10SM CLR 23/22 A3005 RMK AO2 SLP161 T02330222 PWINO $
TAF
2014/08/30 07:06
TAF KNSE 3007/3107 17006KT 9999 VCSH SCT020 SCT030 QNH2999INS 
      TEMPO 3007/3009 4800 RA BR BKN020 BKN030 OVC060 
     FM300900 16007KT 9999 VCTS SCT025 BKN035CB OVC100 QNH3000INS 
      TEMPO 3009/3015 VRB15G25KT 1600 +TSRA BKN015 BKN025CB OVC050 
     FM301500 19012KT 9999 VCTS SCT035CB SCT100 BKN250 QNH2997INS 
      TEMPO 3015/3021 VRB15G25KT 1600 +TSRA BKN015 BKN025CB OVC050 
      TEMPO 3021/3103 VRB15G25KT 1600 +TSRA BKN015 BKN025CB OVC050 AUTOMATED SENSOR METWATCH 3007 TIL 3022 T23/3010Z T30/3018Z FN00077

Runways

05/23 6000 ft / 200 ft
09/27 6000 ft / 200 ft
14/32 6000 ft / 200 ft
18/36 6000 ft / 200 ft

Outbound flights

Callsign Flying to Pilot ATD/STD ETA Aircraft

Inbound flights

Callsign Flying from Pilot ATD ETA Aircraft